Metars

EGJB - Guernsey Airport
Distance from station: SW 8km

Current
Few Clouds
Few Clouds
 Wind from W
Wind: W 17 mph , 28 km/h
Temperature: 15°C
Dew Point: 11°C
Humidity: 77%
Barometer: 1033 hPa
Clouds: Few Clouds
Visibility: 6 miles , 10 km
Cloud details: Few Clouds 457 m
2018/10/23 13:20 EGJB 231320Z 28015KT 9999 FEW015 15/11 Q1033
EGJA - Alderney Airport
Distance from station: NE 37km

Current
Clear
Clear
 Wind from WNW
Wind: WNW 17 mph , 28 km/h
Temperature: 15°C
Dew Point: 11°C
Humidity: 77%
Barometer: 1032 hPa
Summary: Clear
Visibility: greater than 7 miles , 10 km
2018/10/23 13:20 EGJA 231320Z 29015KT CAVOK 15/11 Q1032
EGJJ - Jersey Airport
Distance from station: SE 37km

Current
Few Clouds
Few Clouds
 Wind from W
Wind: W 16 mph , 26 km/h
Temperature: 15°C
Dew Point: 12°C
Humidity: 82%
Barometer: 1033 hPa
Clouds: Few Clouds
Visibility: 6 miles , 10 km
Cloud details: Few Clouds 305 m
2018/10/23 13:20 EGJJ 231320Z 27014KT 9999 FEW010 15/12 Q1033